Time;durP1;ratioP1;P1;durP2;ratioP2;P2;SDS_P1;SDS_P2;PMS_P1;PMS_P2;Temp;Humidity;BMP_temperature;BMP_pressure;BME280_temperature;BME280_humidity;BME280_pressure;Samples;Min_cycle;Max_cycle;Signal;HPM_P1;HPM_P2
2023/09/11 00:01:20;;;;;;;;;;;20.60;99.90;;;;;;4993557;28;20038;-58
2023/09/11 00:03:48;;;;;;;27.75;16.40;;;20.60;99.90;;;;;;4993512;28;20012;-57
2023/09/11 00:06:13;;;;;;;31.45;16.75;;;20.60;99.90;;;;;;4993105;28;20295;-55
2023/09/11 00:08:39;;;;;;;;;;;20.60;99.90;;;;;;4993168;28;20046;-58
2023/09/11 00:11:04;;;;;;;40.25;17.33;;;20.60;99.90;;;;;;4992231;28;19922;-56
2023/09/11 00:13:31;;;;;;;;;;;20.60;99.90;;;;;;4993433;28;20042;-57
2023/09/11 00:15:56;;;;;;;25.73;16.30;;;20.50;99.90;;;;;;4992757;28;20009;-56
2023/09/11 00:18:23;;;;;;;;;;;20.50;99.90;;;;;;4992800;28;20467;-56
2023/09/11 00:20:49;;;;;;;34.90;17.85;;;20.40;99.90;;;;;;4992978;28;20323;-56
2023/09/11 00:23:14;;;;;;;;;;;20.40;99.90;;;;;;4998734;28;20054;-56
2023/09/11 00:25:40;;;;;;;34.13;18.92;;;20.40;99.90;;;;;;4996462;28;19917;-57
2023/09/11 00:28:06;;;;;;;;;;;20.40;99.90;;;;;;4993183;28;20128;-56
2023/09/11 00:30:31;;;;;;;31.50;18.30;;;20.40;99.90;;;;;;4990028;28;19924;-57
2023/09/11 00:32:57;;;;;;;;;;;20.40;99.90;;;;;;4979348;28;20074;-56
2023/09/11 00:35:22;;;;;;;26.88;17.33;;;20.40;99.90;;;;;;4980553;28;19922;-57
2023/09/11 00:37:48;;;;;;;;;;;20.40;99.90;;;;;;4977505;28;20070;-57
2023/09/11 00:40:13;;;;;;;35.70;18.85;;;20.30;99.90;;;;;;4990655;28;20426;-56
2023/09/11 00:42:39;;;;;;;;;;;20.30;99.90;;;;;;4992867;28;20240;-56
2023/09/11 00:45:05;;;;;;;34.95;18.55;;;20.30;99.90;;;;;;4992331;28;19928;-54
2023/09/11 00:47:31;;;;;;;33.13;18.88;;;20.30;99.90;;;;;;4992263;28;20089;-55
2023/09/11 00:49:57;;;;;;;;;;;20.30;99.90;;;;;;4991135;28;20038;-55
2023/09/11 00:52:23;;;;;;;26.67;15.38;;;20.30;99.90;;;;;;4985746;28;20790;-57
2023/09/11 00:54:50;;;;;;;;;;;20.20;99.90;;;;;;4986582;28;20046;-58
2023/09/11 00:57:18;;;;;;;;;;;20.10;99.90;;;;;;4985012;28;19929;-57
2023/09/11 00:59:48;;;;;;;;;;;20.10;99.90;;;;;;4986870;28;19921;-57
2023/09/11 01:02:14;;;;;;;38.58;20.83;;;20.00;99.90;;;;;;4988306;28;20033;-56
2023/09/11 01:04:43;;;;;;;;;;;20.00;99.90;;;;;;4992034;28;20046;-58
2023/09/11 01:07:09;;;;;;;33.03;18.90;;;20.00;99.90;;;;;;4991137;28;19918;-57
2023/09/11 01:09:34;;;;;;;;;;;20.00;99.90;;;;;;4987638;28;20061;-58
2023/09/11 01:12:01;;;;;;;28.92;18.63;;;20.00;99.90;;;;;;4989384;28;19918;-58
2023/09/11 01:14:27;;;;;;;30.25;18.30;;;20.00;99.90;;;;;;4990523;28;20046;-57
2023/09/11 01:17:24;;;;;;;20.65;13.75;;;19.90;99.90;;;;;;4980751;28;20049;-57
2023/09/11 01:20:12;;;;;;;21.13;15.10;;;19.80;99.90;;;;;;5000125;28;20042;-58
2023/09/11 01:23:18;;;;;;;30.27;17.30;;;19.80;99.90;;;;;;4986659;28;20516;-57
2023/09/11 01:26:05;;;;;;;34.13;20.17;;;19.70;99.90;;;;;;4987342;28;20120;-58
2023/09/11 01:28:40;;;;;;;38.83;20.73;;;19.70;99.90;;;;;;4990150;28;20386;-54
2023/09/11 01:31:06;;;;;;;43.42;22.88;;;19.70;99.90;;;;;;4991383;28;20444;-57
2023/09/11 01:33:32;;;;;;;40.33;21.20;;;19.80;99.90;;;;;;4991235;28;20042;-58
2023/09/11 01:35:57;;;;;;;36.03;18.65;;;19.80;99.90;;;;;;4991170;28;20378;-56
2023/09/11 01:38:23;;;;;;;;;;;19.70;99.90;;;;;;4991080;28;20046;-55
2023/09/11 01:40:53;;;;;;;25.65;15.07;;;19.70;99.90;;;;;;4990824;28;19922;-58
2023/09/11 01:43:21;;;;;;;25.73;16.20;;;19.70;99.90;;;;;;4991236;28;20038;-58
2023/09/11 01:45:48;;;;;;;39.15;20.58;;;19.60;99.90;;;;;;4996241;28;20046;-56
2023/09/11 01:48:14;;;;;;;34.42;21.88;;;19.60;99.90;;;;;;4995804;28;20035;-57
2023/09/11 01:50:41;;;;;;;40.08;22.08;;;19.50;99.90;;;;;;4990481;28;20526;-56
2023/09/11 01:53:07;;;;;;;36.33;21.67;;;19.60;99.90;;;;;;4986914;28;20093;-56
2023/09/11 01:55:34;;;;;;;39.10;22.50;;;19.50;99.90;;;;;;4983595;28;20053;-56
2023/09/11 01:58:00;;;;;;;30.83;20.42;;;19.50;99.90;;;;;;4986780;28;20085;-58
2023/09/11 02:00:25;;;;;;;;;;;19.50;99.90;;;;;;4989438;28;20045;-56
2023/09/11 02:02:55;;;;;;;40.53;21.70;;;19.50;99.90;;;;;;4990412;28;20303;-56
2023/09/11 02:05:21;;;;;;;42.03;23.77;;;19.50;99.90;;;;;;4988288;28;20045;-56
2023/09/11 02:07:46;;;;;;;;;;;19.40;99.90;;;;;;4988962;28;20089;-55
2023/09/11 02:10:12;;;;;;;36.08;19.88;;;19.40;99.90;;;;;;4987606;28;19917;-54
2023/09/11 02:12:37;;;;;;;34.28;21.88;;;19.50;99.90;;;;;;4984449;28;20096;-55
2023/09/11 02:15:04;;;;;;;;;;;19.50;99.90;;;;;;4988047;28;20315;-54
2023/09/11 02:17:29;;;;;;;44.35;21.38;;;19.40;99.90;;;;;;4985538;28;19928;-55
2023/09/11 02:19:55;;;;;;;43.10;22.60;;;19.40;99.90;;;;;;4988796;28;20046;-57
2023/09/11 02:22:20;;;;;;;;;;;19.50;99.90;;;;;;4991175;28;20042;-57
2023/09/11 02:24:46;;;;;;;32.13;20.63;;;19.50;99.90;;;;;;4990402;28;19925;-55
2023/09/11 02:27:14;;;;;;;;;;;19.50;99.90;;;;;;4990449;28;20041;-58
2023/09/11 02:29:40;;;;;;;32.95;20.88;;;19.40;99.90;;;;;;4989853;28;19918;-57
2023/09/11 02:32:05;;;;;;;37.15;21.80;;;19.50;99.90;;;;;;4987346;28;20515;-58
2023/09/11 02:34:31;;;;;;;;;;;19.40;99.90;;;;;;4989777;28;20044;-58
2023/09/11 02:36:56;;;;;;;39.90;23.15;;;19.40;99.90;;;;;;4990026;28;19922;-58
2023/09/11 02:39:22;;;;;;;38.35;23.20;;;19.40;99.90;;;;;;4990208;28;20042;-57
2023/09/11 02:41:48;;;;;;;36.72;23.08;;;19.30;99.90;;;;;;4990161;28;20084;-55
2023/09/11 02:44:13;;;;;;;41.22;23.40;;;19.30;99.90;;;;;;4990028;28;20038;-57
2023/09/11 02:46:39;;;;;;;49.20;24.05;;;19.30;99.90;;;;;;4990135;28;20052;-57
2023/09/11 02:49:04;;;;;;;;;;;19.30;99.90;;;;;;4990056;28;20085;-58
2023/09/11 02:51:30;;;;;;;40.15;24.38;;;19.20;99.90;;;;;;4990037;28;19918;-56
2023/09/11 02:53:56;;;;;;;;;;;19.20;99.90;;;;;;4990497;28;20543;-58
2023/09/11 02:56:22;;;;;;;38.65;23.02;;;19.20;99.90;;;;;;4989717;28;20213;-58
2023/09/11 02:58:47;;;;;;;;;;;19.20;99.90;;;;;;4991769;28;20038;-55
2023/09/11 03:01:13;;;;;;;38.78;22.75;;;19.20;99.90;;;;;;4994157;28;20369;-57
2023/09/11 03:03:39;;;;;;;41.88;24.60;;;19.20;99.90;;;;;;4993987;28;20089;-57
2023/09/11 03:06:05;;;;;;;37.20;23.40;;;19.20;99.90;;;;;;4994007;28;20441;-55
2023/09/11 03:08:31;;;;;;;;;;;19.20;99.90;;;;;;4992315;28;20042;-58
2023/09/11 03:11:07;;;;;;;37.60;23.85;;;19.10;99.90;;;;;;4989442;28;19968;-57
2023/09/11 03:13:33;;;;;;;41.30;24.40;;;19.10;99.90;;;;;;4988095;28;20042;-58
2023/09/11 03:16:09;;;;;;;;;;;19.00;99.90;;;;;;4990293;28;20046;-57
2023/09/11 03:18:35;;;;;;;43.38;25.33;;;19.00;99.90;;;;;;4989507;28;19961;-57
2023/09/11 03:21:02;;;;;;;;;;;19.00;99.90;;;;;;4994078;28;20038;-56
2023/09/11 03:23:28;;;;;;;39.80;24.02;;;19.00;99.90;;;;;;4993194;28;20342;-58
2023/09/11 03:25:54;;;;;;;33.85;23.45;;;19.00;99.90;;;;;;4992607;28;20452;-57
2023/09/11 03:28:19;;;;;;;38.33;22.90;;;19.00;99.90;;;;;;4993359;28;20084;-58
2023/09/11 03:30:45;;;;;;;34.15;22.92;;;19.00;99.90;;;;;;4993504;28;20034;-58
2023/09/11 03:33:11;;;;;;;;;;;19.00;99.90;;;;;;4993805;28;20049;-57
2023/09/11 03:35:36;;;;;;;29.05;21.75;;;19.00;99.90;;;;;;4993348;28;19917;-58
2023/09/11 03:38:02;;;;;;;;;;;19.10;99.90;;;;;;4993833;28;20030;-59
2023/09/11 03:40:29;;;;;;;32.10;22.17;;;19.10;99.90;;;;;;4993069;28;19965;-58
2023/09/11 03:42:54;;;;;;;38.42;23.95;;;19.10;99.90;;;;;;4993494;28;20038;-58
2023/09/11 03:45:20;;;;;;;33.45;24.23;;;19.10;99.90;;;;;;4993125;28;20042;-58
2023/09/11 03:47:46;;;;;;;;;;;19.10;99.90;;;;;;4993630;28;20472;-58
2023/09/11 03:50:11;;;;;;;32.95;24.10;;;19.10;99.90;;;;;;4992803;28;19921;-57
2023/09/11 03:52:37;;;;;;;;;;;19.10;99.90;;;;;;4992952;28;20092;-59
2023/09/11 03:55:03;;;;;;;41.03;26.60;;;19.10;99.90;;;;;;4993323;28;20573;-58
2023/09/11 03:57:29;;;;;;;38.28;24.85;;;19.10;99.90;;;;;;4975513;28;20626;-58
2023/09/11 03:59:55;;;;;;;34.92;24.33;;;19.00;99.90;;;;;;4993097;28;20088;-57
2023/09/11 04:02:20;;;;;;;37.50;24.27;;;19.10;99.90;;;;;;4993184;28;20085;-58
2023/09/11 04:04:46;;;;;;;33.85;24.38;;;19.00;99.90;;;;;;4993039;28;20038;-57
2023/09/11 04:07:12;;;;;;;36.85;24.60;;;19.10;99.90;;;;;;4992922;28;20042;-57
2023/09/11 04:09:37;;;;;;;44.50;26.27;;;19.00;99.90;;;;;;4988592;28;20198;-58
2023/09/11 04:12:03;;;;;;;38.50;26.70;;;19.00;99.90;;;;;;4988151;28;20042;-58
2023/09/11 04:14:29;;;;;;;41.05;27.25;;;18.90;99.90;;;;;;4986981;28;20050;-58
2023/09/11 04:16:55;;;;;;;48.20;25.23;;;18.90;99.90;;;;;;4988710;28;20365;-58
2023/09/11 04:19:21;;;;;;;42.00;25.23;;;18.90;99.90;;;;;;4990130;28;20104;-58
2023/09/11 04:21:47;;;;;;;36.15;26.90;;;18.90;99.90;;;;;;4991762;28;20031;-57
2023/09/11 04:24:12;;;;;;;42.05;25.85;;;18.80;99.90;;;;;;4991903;28;20039;-58
2023/09/11 04:26:40;;;;;;;45.70;27.40;;;18.90;99.90;;;;;;4992021;28;20360;-57
2023/09/11 04:29:06;;;;;;;52.15;25.75;;;18.80;99.90;;;;;;4990196;28;20408;-58
2023/09/11 04:31:31;;;;;;;;;;;18.80;99.90;;;;;;4993249;28;20045;-56
2023/09/11 04:33:57;;;;;;;37.92;25.17;;;18.80;99.90;;;;;;4996887;28;19918;-56
2023/09/11 04:36:22;;;;;;;33.30;23.90;;;18.70;99.90;;;;;;4993640;28;20038;-57
2023/09/11 04:38:48;;;;;;;39.88;23.60;;;18.70;99.90;;;;;;4992141;28;20475;-57
2023/09/11 04:41:14;;;;;;;41.28;25.30;;;18.70;99.90;;;;;;4992294;28;20038;-56
2023/09/11 04:43:40;;;;;;;34.85;23.98;;;18.70;99.90;;;;;;4992176;28;20073;-57
2023/09/11 04:46:06;;;;;;;40.85;23.55;;;18.60;99.90;;;;;;4991012;28;20054;-56
2023/09/11 04:48:32;;;;;;;31.10;24.75;;;18.60;99.90;;;;;;4990332;28;20050;-55
2023/09/11 04:50:57;;;;;;;39.05;24.50;;;18.60;99.90;;;;;;4991663;28;20537;-56
2023/09/11 04:53:23;;;;;;;40.72;24.42;;;18.60;99.90;;;;;;4992116;28;20042;-54
2023/09/11 04:55:48;;;;;;;37.45;25.40;;;18.60;99.90;;;;;;4991879;28;20044;-56
2023/09/11 04:58:14;;;;;;;31.63;25.27;;;18.60;99.90;;;;;;4992132;28;20038;-56
2023/09/11 05:00:40;;;;;;;;;;;18.60;99.90;;;;;;4992275;28;20085;-56
2023/09/11 05:03:06;;;;;;;42.55;26.38;;;18.60;99.90;;;;;;4992215;28;20320;-54
2023/09/11 05:05:38;;;;;;;;;;;18.60;99.90;;;;;;4991918;28;20034;-56
2023/09/11 05:08:05;;;;;;;34.63;23.42;;;18.60;99.90;;;;;;4990795;28;19924;-57
2023/09/11 05:10:31;;;;;;;33.60;23.42;;;18.60;99.90;;;;;;4987389;28;20452;-57
2023/09/11 05:12:57;;;;;;;41.40;24.17;;;18.60;99.90;;;;;;4987723;28;20034;-58
2023/09/11 05:15:23;;;;;;;36.25;24.65;;;18.60;99.90;;;;;;4986629;28;20485;-56
2023/09/11 05:17:49;;;;;;;;;;;18.60;99.90;;;;;;4988889;28;20049;-55
2023/09/11 05:20:15;;;;;;;40.33;24.20;;;18.60;99.90;;;;;;4989665;28;20416;-58
2023/09/11 05:22:41;;;;;;;37.72;25.10;;;18.70;99.90;;;;;;4990556;28;20065;-58
2023/09/11 05:25:07;;;;;;;;;;;18.60;99.90;;;;;;4990884;28;20457;-58
2023/09/11 05:27:33;;;;;;;43.28;23.10;;;18.60;99.90;;;;;;4991601;28;20386;-55
2023/09/11 05:29:58;;;;;;;37.25;25.25;;;18.60;99.90;;;;;;4990778;28;20057;-58
2023/09/11 05:32:25;;;;;;;46.13;24.83;;;18.70;99.90;;;;;;4988946;28;20046;-58
2023/09/11 05:34:52;;;;;;;43.10;24.83;;;18.70;99.90;;;;;;4988799;28;20061;-55
2023/09/11 05:37:17;;;;;;;40.05;25.20;;;18.70;99.90;;;;;;4989332;28;20508;-58
2023/09/11 05:39:43;;;;;;;41.25;25.02;;;18.70;99.90;;;;;;4990514;28;20074;-58
2023/09/11 05:42:10;;;;;;;32.83;24.70;;;18.70;99.90;;;;;;4989543;28;20034;-58
2023/09/11 05:44:36;;;;;;;37.15;24.10;;;18.80;99.90;;;;;;4989162;28;20129;-58
2023/09/11 05:47:03;;;;;;;41.85;24.08;;;18.80;99.90;;;;;;4988367;28;20395;-58
2023/09/11 05:49:28;;;;;;;33.03;23.58;;;18.80;99.90;;;;;;4990561;28;20046;-55
2023/09/11 05:51:55;;;;;;;34.78;23.70;;;18.90;99.90;;;;;;4990297;28;20523;-56
2023/09/11 05:54:21;;;;;;;36.70;23.85;;;18.90;99.90;;;;;;4988035;28;20034;-58
2023/09/11 05:56:46;;;;;;;40.53;26.42;;;18.90;99.90;;;;;;4990499;28;20037;-58
2023/09/11 05:59:12;;;;;;;37.13;25.38;;;19.00;99.90;;;;;;4990863;28;20041;-58
2023/09/11 06:01:38;;;;;;;32.75;26.05;;;19.10;99.90;;;;;;4989121;28;20042;-58
2023/09/11 06:04:04;;;;;;;41.60;26.75;;;19.10;99.90;;;;;;4991003;28;20034;-55
2023/09/11 06:06:30;;;;;;;39.83;26.90;;;19.20;99.90;;;;;;4990922;28;20042;-57
2023/09/11 06:08:57;;;;;;;49.15;27.05;;;19.40;99.90;;;;;;4990458;28;20038;-57
2023/09/11 06:11:23;;;;;;;35.35;24.15;;;19.70;99.90;;;;;;4990593;28;20085;-58
2023/09/11 06:13:49;;;;;;;33.90;25.52;;;19.80;99.90;;;;;;4984193;28;20069;-56
2023/09/11 06:16:14;;;;;;;41.58;24.48;;;20.00;99.90;;;;;;4988194;28;20477;-56
2023/09/11 06:18:40;;;;;;;35.80;25.88;;;20.00;99.90;;;;;;4987857;28;20035;-56
2023/09/11 06:21:06;;;;;;;43.55;25.83;;;20.00;99.90;;;;;;4987109;28;20417;-58
2023/09/11 06:23:31;;;;;;;;;;;20.10;99.90;;;;;;4988297;28;20046;-58
2023/09/11 06:25:57;;;;;;;39.53;24.05;;;20.10;99.90;;;;;;4988949;28;19940;-57
2023/09/11 06:28:22;;;;;;;;;;;20.20;99.90;;;;;;4990239;28;20046;-58
2023/09/11 06:30:48;;;;;;;36.78;23.38;;;20.30;99.90;;;;;;4989824;28;19940;-57
2023/09/11 06:33:14;;;;;;;38.28;24.63;;;20.40;99.90;;;;;;4990135;28;20042;-54
2023/09/11 06:35:39;;;;;;;;;;;20.50;99.90;;;;;;4984099;28;20053;-56
2023/09/11 06:38:05;;;;;;;35.88;23.75;;;20.50;99.90;;;;;;4986630;28;20008;-56
2023/09/11 06:40:30;;;;;;;;;;;20.50;99.90;;;;;;5003252;28;20471;-58
2023/09/11 06:42:57;;;;;;;42.47;22.25;;;20.60;99.90;;;;;;4986552;28;19924;-58
2023/09/11 06:45:22;;;;;;;34.83;20.85;;;20.70;99.90;;;;;;4986348;28;20504;-59
2023/09/11 06:47:48;;;;;;;;;;;20.80;99.90;;;;;;4984759;28;20042;-55
2023/09/11 06:50:14;;;;;;;35.05;21.80;;;21.00;99.90;;;;;;4988439;28;19971;-56
2023/09/11 06:52:40;;;;;;;38.55;22.55;;;21.00;99.90;;;;;;4984113;28;20057;-58
2023/09/11 06:55:09;;;;;;;;;;;21.20;99.90;;;;;;4985936;28;20092;-57
2023/09/11 06:57:35;;;;;;;37.78;22.02;;;21.30;99.90;;;;;;4987388;28;19934;-56
2023/09/11 07:00:08;;;;;;;;;;;21.40;99.90;;;;;;4985746;28;20512;-56
2023/09/11 07:02:33;;;;;;;30.83;21.58;;;21.50;99.90;;;;;;4987771;28;20029;-58
2023/09/11 07:04:59;;;;;;;;;;;21.60;99.90;;;;;;4988270;28;20136;-55
2023/09/11 07:07:25;;;;;;;188.85;31.63;;;21.80;99.90;;;;;;4984318;28;19929;-56
2023/09/11 07:09:51;;;;;;;30.35;19.88;;;21.90;99.90;;;;;;4989287;28;20080;-58
2023/09/11 07:12:20;;;;;;;34.15;22.65;;;22.00;99.90;;;;;;4988113;28;20038;-58
2023/09/11 07:14:46;;;;;;;36.78;21.20;;;22.20;99.90;;;;;;4987001;28;20527;-56
2023/09/11 07:17:11;;;;;;;;;;;22.30;99.90;;;;;;4995843;28;20046;-57
2023/09/11 07:19:37;;;;;;;38.85;20.83;;;22.40;99.90;;;;;;4985700;28;20004;-57
2023/09/11 07:22:03;;;;;;;34.67;20.63;;;22.50;99.90;;;;;;4987238;28;20486;-58
2023/09/11 07:24:28;;;;;;;32.80;20.15;;;22.60;99.90;;;;;;4983248;28;20049;-56
2023/09/11 07:26:54;;;;;;;29.25;20.80;;;22.60;99.90;;;;;;4989406;28;20034;-58
2023/09/11 07:29:24;;;;;;;;;;;22.80;99.90;;;;;;4985347;28;20042;-56
2023/09/11 07:31:49;;;;;;;36.10;20.58;;;22.90;99.90;;;;;;4986559;28;19926;-55
2023/09/11 07:34:15;;;;;;;;;;;23.00;99.90;;;;;;4986480;28;20189;-57
2023/09/11 07:36:41;;;;;;;29.38;17.15;;;23.10;99.90;;;;;;4986300;28;19926;-53
2023/09/11 07:39:07;;;;;;;27.85;19.27;;;23.20;99.90;;;;;;4986791;28;20049;-55
2023/09/11 07:41:32;;;;;;;;;;;23.40;99.90;;;;;;4989306;28;20125;-53
2023/09/11 07:43:58;;;;;;;31.13;18.00;;;23.50;99.90;;;;;;4988192;28;19918;-53
2023/09/11 07:46:30;;;;;;;50.83;22.98;;;23.60;99.90;;;;;;4991849;28;20054;-53
2023/09/11 07:48:55;;;;;;;34.17;17.42;;;23.70;99.90;;;;;;4992862;28;20566;-54
2023/09/11 07:51:21;;;;;;;32.72;17.70;;;23.80;99.90;;;;;;4992491;28;20049;-56
2023/09/11 07:53:46;;;;;;;32.03;17.30;;;23.90;99.90;;;;;;4992987;28;20414;-57
2023/09/11 07:56:13;;;;;;;39.65;18.67;;;24.00;99.90;;;;;;4991352;28;20122;-57
2023/09/11 07:58:39;;;;;;;39.33;19.98;;;24.00;99.90;;;;;;4991984;28;20081;-58
2023/09/11 08:01:05;;;;;;;29.17;17.05;;;24.10;99.90;;;;;;4992635;28;20034;-58
2023/09/11 08:03:34;;;;;;;28.75;18.65;;;24.30;99.90;;;;;;4991625;28;20509;-56
2023/09/11 08:06:01;;;;;;;24.98;17.02;;;24.40;99.90;;;;;;4990473;28;20065;-56
2023/09/11 08:08:27;;;;;;;34.42;18.23;;;24.50;99.90;;;;;;4991221;28;20050;-57
2023/09/11 08:10:53;;;;;;;23.45;15.40;;;24.70;99.90;;;;;;4990913;28;20046;-57
2023/09/11 08:13:19;;;;;;;29.38;15.30;;;24.80;99.90;;;;;;4988377;28;20468;-58
2023/09/11 08:15:44;;;;;;;28.80;15.18;;;24.90;99.90;;;;;;4982622;28;20175;-57
2023/09/11 08:18:10;;;;;;;25.85;15.85;;;25.00;99.90;;;;;;4986025;28;20109;-57
2023/09/11 08:20:36;;;;;;;28.67;15.73;;;25.10;99.90;;;;;;4985973;28;20486;-57
2023/09/11 08:23:02;;;;;;;30.67;15.02;;;25.20;99.90;;;;;;4988284;28;20034;-56
2023/09/11 08:25:29;;;;;;;36.65;16.65;;;25.20;99.90;;;;;;4985621;28;20092;-55
2023/09/11 08:27:54;;;;;;;22.05;15.07;;;25.30;99.90;;;;;;4986001;28;20149;-55
2023/09/11 08:30:20;;;;;;;23.13;15.70;;;25.40;99.90;;;;;;4983354;28;20603;-56
2023/09/11 08:32:46;;;;;;;25.35;13.93;;;25.50;99.90;;;;;;4986682;28;20081;-55
2023/09/11 08:35:11;;;;;;;26.42;12.70;;;25.60;99.90;;;;;;4984636;28;20065;-56
2023/09/11 08:37:37;;;;;;;23.65;13.02;;;25.80;99.90;;;;;;4969342;28;20041;-57
2023/09/11 08:40:03;;;;;;;22.63;12.15;;;25.90;99.90;;;;;;4981821;28;20038;-56
2023/09/11 08:42:29;;;;;;;25.50;14.40;;;26.00;99.90;;;;;;4986380;28;20042;-57
2023/09/11 08:44:54;;;;;;;22.02;11.70;;;26.10;99.90;;;;;;4982730;28;20056;-59
2023/09/11 08:47:26;;;;;;;22.92;9.98;;;26.20;99.90;;;;;;4984328;28;20034;-58
2023/09/11 08:49:55;;;;;;;15.23;9.25;;;26.30;99.90;;;;;;4981944;28;20042;-57
2023/09/11 08:52:22;;;;;;;22.20;7.45;;;26.40;99.90;;;;;;4987510;28;20038;-56
2023/09/11 08:54:52;;;;;;;16.73;9.02;;;26.50;99.90;;;;;;4984191;28;20046;-58
2023/09/11 08:57:21;;;;;;;16.92;7.95;;;26.60;99.90;;;;;;4986157;28;20394;-58
2023/09/11 08:59:52;;;;;;;19.55;7.72;;;26.70;99.90;;;;;;4984950;28;20047;-58
2023/09/11 09:02:20;;;;;;;23.60;8.48;;;26.80;99.90;;;;;;4986296;28;20485;-55
2023/09/11 09:04:48;;;;;;;15.00;7.35;;;26.80;99.90;;;;;;4981578;28;20047;-59
2023/09/11 09:07:15;;;;;;;29.25;7.45;;;26.90;99.90;;;;;;4985918;28;20043;-56
2023/09/11 09:09:42;;;;;;;17.50;7.43;;;26.90;99.90;;;;;;4983322;28;20049;-59
2023/09/11 09:12:08;;;;;;;13.85;7.35;;;27.00;99.90;;;;;;4985728;28;20042;-56
2023/09/11 09:14:38;;;;;;;19.92;7.63;;;27.10;99.90;;;;;;4984534;28;20042;-58
2023/09/11 09:17:04;;;;;;;18.05;7.45;;;27.00;99.90;;;;;;4984613;28;20047;-59
2023/09/11 09:19:29;;;;;;;21.25;7.70;;;27.10;99.90;;;;;;4983264;28;20038;-58
2023/09/11 09:22:07;;;;;;;18.15;7.60;;;27.10;99.90;;;;;;4983094;28;20034;-57
2023/09/11 09:24:36;;;;;;;16.10;7.38;;;27.20;99.90;;;;;;4983306;28;20125;-57
2023/09/11 09:27:05;;;;;;;18.67;7.40;;;27.20;99.90;;;;;;4985716;28;20046;-57
2023/09/11 09:29:38;;;;;;;19.63;7.88;;;27.20;99.90;;;;;;4966415;28;20061;-58
2023/09/11 09:32:06;;;;;;;19.75;7.50;;;27.30;99.90;;;;;;4985162;28;20045;-58
2023/09/11 09:34:33;;;;;;;20.27;7.85;;;27.30;99.90;;;;;;4983265;28;20472;-56
2023/09/11 09:36:59;;;;;;;16.65;7.53;;;27.40;99.90;;;;;;4979284;28;20058;-56
2023/09/11 09:39:28;;;;;;;18.70;7.47;;;27.40;99.90;;;;;;4984363;28;20042;-58
2023/09/11 09:41:54;;;;;;;19.55;8.82;;;27.50;99.90;;;;;;4984889;28;20191;-58
2023/09/11 09:44:29;;;;;;;29.35;10.18;;;27.60;99.90;;;;;;4984589;28;20035;-56
2023/09/11 09:46:55;;;;;;;16.67;9.32;;;27.70;99.90;;;;;;4984984;28;20050;-58
2023/09/11 09:49:22;;;;;;;20.23;8.60;;;27.80;99.90;;;;;;4984185;28;20169;-56
2023/09/11 09:51:48;;;;;;;15.65;7.10;;;27.90;99.90;;;;;;4984675;28;20370;-58
2023/09/11 09:54:13;;;;;;;13.30;7.93;;;27.90;99.90;;;;;;4984720;28;20048;-57
2023/09/11 09:56:42;;;;;;;17.02;8.68;;;28.00;99.90;;;;;;4982660;28;20042;-57
2023/09/11 09:59:07;;;;;;;19.10;8.88;;;28.00;99.90;;;;;;4985779;28;20077;-57
2023/09/11 10:01:44;;;;;;;29.10;9.18;;;28.10;99.90;;;;;;4985838;28;20117;-56
2023/09/11 10:04:15;;;;;;;15.35;7.78;;;28.10;99.90;;;;;;4980282;28;20515;-58
2023/09/11 10:06:41;;;;;;;16.95;8.32;;;28.20;99.90;;;;;;4979464;28;20113;-57
2023/09/11 10:09:09;;;;;;;19.42;8.82;;;28.20;99.90;;;;;;4980031;28;20077;-56
2023/09/11 10:11:36;;;;;;;21.48;8.63;;;28.30;99.90;;;;;;4980087;28;20433;-56
2023/09/11 10:14:04;;;;;;;19.92;8.73;;;28.40;99.90;;;;;;4980908;28;20200;-56
2023/09/11 10:16:30;;;;;;;24.77;8.63;;;28.40;99.90;;;;;;4983099;28;20042;-58
2023/09/11 10:18:57;;;;;;;23.40;10.15;;;28.50;99.90;;;;;;4982169;28;20100;-56
2023/09/11 10:21:24;;;;;;;16.15;8.82;;;28.60;99.90;;;;;;4981238;28;20050;-56
2023/09/11 10:23:50;;;;;;;21.02;10.23;;;28.60;99.90;;;;;;4983925;28;20247;-57
2023/09/11 10:26:25;;;;;;;14.63;9.90;;;28.60;99.90;;;;;;4981917;28;20050;-58
2023/09/11 10:29:03;;;;;;;17.15;10.25;;;28.70;99.90;;;;;;4984184;28;20498;-57
2023/09/11 10:31:39;;;;;;;18.92;11.00;;;28.70;99.90;;;;;;4984450;28;20379;-55
2023/09/11 10:34:05;;;;;;;;;;;28.60;99.90;;;;;;4981684;28;20049;-58
2023/09/11 10:36:36;;;;;;;15.07;9.87;;;28.60;99.90;;;;;;4981851;28;20315;-57
2023/09/11 10:39:04;;;;;;;22.55;11.70;;;28.60;99.90;;;;;;4983525;28;20482;-57
2023/09/11 10:41:31;;;;;;;20.77;10.25;;;28.60;99.90;;;;;;4984645;28;20042;-57
2023/09/11 10:43:57;;;;;;;19.75;11.48;;;28.40;99.90;;;;;;4983264;28;20038;-57
2023/09/11 10:46:23;;;;;;;19.90;11.65;;;28.30;99.90;;;;;;4984878;28;20042;-53
2023/09/11 10:48:51;;;;;;;18.05;10.50;;;28.30;99.90;;;;;;4984678;28;20385;-56
2023/09/11 10:51:17;;;;;;;18.33;10.18;;;28.30;99.90;;;;;;4983241;28;20046;-56
2023/09/11 10:53:43;;;;;;;14.38;10.48;;;28.50;99.90;;;;;;4983321;28;20057;-57
2023/09/11 10:56:10;;;;;;;14.07;10.85;;;28.60;99.90;;;;;;4984682;28;20125;-57
2023/09/11 10:58:36;;;;;;;17.90;10.52;;;28.80;99.90;;;;;;4983608;28;20050;-55
2023/09/11 11:01:04;;;;;;;22.85;9.63;;;28.90;99.90;;;;;;4984883;28;20038;-55
2023/09/11 11:03:31;;;;;;;21.65;10.02;;;29.00;99.90;;;;;;4984978;28;20124;-58
2023/09/11 11:06:01;;;;;;;12.38;8.75;;;29.00;99.90;;;;;;4983833;28;20496;-56
2023/09/11 11:08:32;;;;;;;11.10;8.20;;;29.00;99.90;;;;;;4982285;28;20507;-58
2023/09/11 11:11:00;;;;;;;15.02;8.38;;;29.10;99.80;;;;;;4996782;28;20041;-58
2023/09/11 11:13:25;;;;;;;20.42;7.95;;;29.20;99.60;;;;;;4978669;28;20262;-57
2023/09/11 11:16:14;;;;;;;12.85;8.73;;;29.30;99.30;;;;;;4981891;28;20509;-57
2023/09/11 11:18:39;;;;;;;16.77;8.88;;;29.20;97.80;;;;;;4982899;28;20125;-57
2023/09/11 11:21:07;;;;;;;16.00;8.50;;;29.10;99.00;;;;;;4981050;28;20544;-58
2023/09/11 11:23:54;;;;;;;13.85;9.40;;;29.00;99.00;;;;;;4981440;28;20046;-57
2023/09/11 11:26:23;;;;;;;16.45;8.85;;;29.00;99.30;;;;;;4981835;28;20057;-55
2023/09/11 11:28:49;;;;;;;12.07;9.13;;;29.10;98.90;;;;;;4980397;28;20088;-56
2023/09/11 11:31:20;;;;;;;12.82;8.02;;;29.10;99.00;;;;;;4983536;28;20053;-54
2023/09/11 11:33:47;;;;;;;16.55;10.00;;;29.20;98.70;;;;;;4980789;28;20105;-57
2023/09/11 11:36:14;;;;;;;17.25;9.63;;;29.20;99.20;;;;;;4979349;28;20089;-57
2023/09/11 11:38:42;;;;;;;19.50;9.57;;;29.20;99.00;;;;;;4985466;28;20069;-59
2023/09/11 11:41:09;;;;;;;146.25;48.03;;;29.30;99.30;;;;;;4985819;28;20077;-56
2023/09/11 11:43:34;;;;;;;18.70;9.48;;;29.20;99.40;;;;;;4983863;28;20078;-58
2023/09/11 11:46:01;;;;;;;22.35;9.65;;;29.20;98.70;;;;;;4986167;28;20062;-58
2023/09/11 11:48:27;;;;;;;27.70;11.95;;;29.30;98.40;;;;;;4984879;28;20026;-57
2023/09/11 11:50:53;;;;;;;56.10;14.30;;;29.40;98.60;;;;;;4980016;28;20034;-57
2023/09/11 11:53:22;;;;;;;32.20;12.45;;;29.50;99.00;;;;;;4985807;28;20038;-53
2023/09/11 11:55:48;;;;;;;15.38;9.73;;;29.60;99.30;;;;;;4985220;28;20457;-58
2023/09/11 11:58:15;;;;;;;30.92;14.07;;;29.70;98.70;;;;;;4981448;28;20050;-54
2023/09/11 12:00:54;;;;;;;21.02;11.13;;;29.80;98.70;;;;;;4983877;28;20053;-56
2023/09/11 12:03:20;;;;;;;17.38;10.10;;;29.80;98.20;;;;;;4983605;28;20095;-57
2023/09/11 12:05:46;;;;;;;13.25;8.95;;;29.90;98.50;;;;;;4985271;28;20073;-53
2023/09/11 12:08:12;;;;;;;13.95;9.30;;;29.90;98.70;;;;;;4986755;28;20831;-56
2023/09/11 12:10:48;;;;;;;16.15;10.02;;;30.00;98.70;;;;;;4984941;28;20034;-58
2023/09/11 12:13:17;;;;;;;12.43;8.77;;;30.00;98.90;;;;;;4986530;28;20057;-56
2023/09/11 12:15:50;;;;;;;15.02;9.63;;;30.20;98.90;;;;;;4980979;28;20042;-58
2023/09/11 12:18:16;;;;;;;11.85;6.68;;;30.30;98.60;;;;;;4982133;28;20128;-54
2023/09/11 12:21:00;;;;;;;12.60;8.30;;;30.30;98.90;;;;;;4984161;28;20512;-58
2023/09/11 12:23:26;;;;;;;14.02;8.07;;;30.40;97.80;;;;;;4986811;28;20041;-58
2023/09/11 12:25:52;;;;;;;13.77;8.90;;;30.50;98.40;;;;;;4983934;28;20508;-58
2023/09/11 12:28:20;;;;;;;13.25;6.50;;;30.60;98.10;;;;;;4981687;28;20562;-52
2023/09/11 12:30:46;;;;;;;13.50;7.10;;;30.60;98.10;;;;;;4981728;28;20039;-57
2023/09/11 12:33:21;;;;;;;16.50;7.55;;;30.70;97.60;;;;;;4977911;28;20038;-55
2023/09/11 12:35:47;;;;;;;15.70;6.80;;;30.70;97.10;;;;;;4986692;28;20100;-53
2023/09/11 12:38:13;;;;;;;6.43;5.28;;;30.60;97.40;;;;;;4987993;28;20121;-57
2023/09/11 12:40:43;;;;;;;12.98;5.55;;;30.70;97.20;;;;;;4985767;28;20042;-57
2023/09/11 12:43:10;;;;;;;7.63;4.63;;;30.60;96.60;;;;;;4985282;28;20046;-54
2023/09/11 12:45:36;;;;;;;7.95;5.47;;;30.60;96.60;;;;;;4985577;28;20030;-53